createdAt,value
2022-12-03T00:02:21.651Z,-0.20
2022-12-03T00:04:48.656Z,-0.20
2022-12-03T00:07:15.429Z,-0.20
2022-12-03T00:09:42.733Z,-0.20
2022-12-03T00:12:09.544Z,-0.20
2022-12-03T00:14:41.276Z,-0.20
2022-12-03T00:17:11.183Z,-0.20
2022-12-03T00:19:38.006Z,-0.20
2022-12-03T00:22:04.817Z,-0.30
2022-12-03T00:24:31.844Z,-0.30
2022-12-03T00:26:58.782Z,-0.30
2022-12-03T00:29:25.786Z,-0.20
2022-12-03T00:31:52.576Z,-0.30
2022-12-03T00:34:19.750Z,-0.30
2022-12-03T00:36:46.565Z,-0.30
2022-12-03T00:39:13.347Z,-0.30
2022-12-03T00:41:40.170Z,-0.30
2022-12-03T00:44:06.985Z,-0.30
2022-12-03T00:46:33.823Z,-0.30
2022-12-03T00:49:00.722Z,-0.30
2022-12-03T00:51:27.512Z,-0.30
2022-12-03T00:53:54.347Z,-0.30
2022-12-03T00:56:21.229Z,-0.30
2022-12-03T00:58:50.033Z,-0.30
2022-12-03T01:01:16.944Z,-0.30
2022-12-03T01:03:43.775Z,-0.30
2022-12-03T01:06:10.668Z,-0.30
2022-12-03T01:08:37.417Z,-0.30
2022-12-03T01:11:24.363Z,-0.40
2022-12-03T01:13:51.176Z,-0.40
2022-12-03T01:16:18.042Z,-0.30
2022-12-03T01:18:46.183Z,-0.30
2022-12-03T01:21:12.921Z,-0.30
2022-12-03T01:23:39.831Z,-0.30
2022-12-03T01:26:06.629Z,-0.30
2022-12-03T01:28:33.496Z,-0.30
2022-12-03T01:31:18.795Z,-0.30
2022-12-03T01:33:45.629Z,-0.30
2022-12-03T01:36:12.477Z,-0.40
2022-12-03T01:38:39.298Z,-0.40
2022-12-03T01:41:11.514Z,-0.40
2022-12-03T01:43:38.846Z,-0.40
2022-12-03T01:46:05.897Z,-0.40
2022-12-03T01:48:36.117Z,-0.40
2022-12-03T01:51:03.188Z,-0.40
2022-12-03T01:53:32.607Z,-0.40
2022-12-03T01:55:59.691Z,-0.40
2022-12-03T01:58:29.815Z,-0.40
2022-12-03T02:01:01.669Z,-0.40
2022-12-03T02:03:28.827Z,-0.40
2022-12-03T02:05:59.396Z,-0.40
2022-12-03T02:08:28.456Z,-0.40
2022-12-03T02:10:56.505Z,-0.40
2022-12-03T02:13:23.302Z,-0.40
2022-12-03T02:15:50.332Z,-0.40
2022-12-03T02:18:17.894Z,-0.40
2022-12-03T02:20:56.182Z,-0.40
2022-12-03T02:23:31.353Z,-0.40
2022-12-03T02:25:58.179Z,-0.50
2022-12-03T02:28:25.129Z,-0.40
2022-12-03T02:30:54.125Z,-0.40
2022-12-03T02:33:20.990Z,-0.40
2022-12-03T02:35:48.435Z,-0.40
2022-12-03T02:38:22.474Z,-0.40
2022-12-03T02:40:56.340Z,-0.40
2022-12-03T02:43:24.146Z,-0.40
2022-12-03T02:45:54.147Z,-0.50
2022-12-03T02:48:36.694Z,-0.50
2022-12-03T02:51:07.863Z,-0.50
2022-12-03T02:53:42.357Z,-0.50
2022-12-03T02:56:12.183Z,-0.50
2022-12-03T02:58:40.719Z,-0.50
2022-12-03T03:01:08.305Z,-0.40
2022-12-03T03:03:37.392Z,-0.40
2022-12-03T03:06:07.576Z,-0.50
2022-12-03T03:08:36.554Z,-0.50
2022-12-03T03:11:03.783Z,-0.50
2022-12-03T03:13:33.185Z,-0.40
2022-12-03T03:16:01.641Z,-0.40
2022-12-03T03:18:28.875Z,-0.40
2022-12-03T03:20:55.728Z,-0.40
2022-12-03T03:23:24.146Z,-0.50
2022-12-03T03:26:04.873Z,-0.50
2022-12-03T03:28:34.673Z,-0.50
2022-12-03T03:31:04.149Z,-0.50
2022-12-03T03:33:35.055Z,-0.40
2022-12-03T03:36:02.716Z,-0.40
2022-12-03T03:38:33.212Z,-0.50
2022-12-03T03:41:01.888Z,-0.50
2022-12-03T03:43:30.644Z,-0.50
2022-12-03T03:45:57.563Z,-0.50
2022-12-03T03:48:24.533Z,-0.50
2022-12-03T03:50:51.934Z,-0.50
2022-12-03T03:53:19.840Z,-0.50
2022-12-03T03:55:46.918Z,-0.50
2022-12-03T03:58:16.181Z,-0.50
2022-12-03T04:00:45.459Z,-0.50
2022-12-03T04:03:13.244Z,-0.50
2022-12-03T04:05:40.363Z,-0.50
2022-12-03T04:08:07.264Z,-0.50
2022-12-03T04:10:52.857Z,-0.50
2022-12-03T04:13:19.738Z,-0.50
2022-12-03T04:15:46.521Z,-0.50
2022-12-03T04:18:32.115Z,-0.50
2022-12-03T04:21:18.856Z,-0.50
2022-12-03T04:23:45.811Z,-0.50
2022-12-03T04:26:31.290Z,-0.50
2022-12-03T04:28:58.137Z,-0.50
2022-12-03T04:31:43.671Z,-0.50
2022-12-03T04:34:29.896Z,-0.50
2022-12-03T04:36:56.892Z,-0.50
2022-12-03T04:39:23.834Z,-0.50
2022-12-03T04:41:50.654Z,-0.50
2022-12-03T04:44:36.440Z,-0.50
2022-12-03T04:47:15.009Z,-0.50
2022-12-03T04:49:44.555Z,-0.50
2022-12-03T04:52:12.862Z,-0.50
2022-12-03T04:54:40.530Z,-0.50
2022-12-03T04:57:08.359Z,-0.50
2022-12-03T04:59:36.529Z,-0.50
2022-12-03T05:02:04.153Z,-0.50
2022-12-03T05:04:32.846Z,-0.60
2022-12-03T05:06:59.855Z,-0.60
2022-12-03T05:09:26.735Z,-0.60
2022-12-03T05:11:53.719Z,-0.50
2022-12-03T05:14:21.664Z,-0.40
2022-12-03T05:16:48.626Z,-0.50
2022-12-03T05:19:15.533Z,-0.60
2022-12-03T05:21:42.337Z,-0.50
2022-12-03T05:24:09.234Z,-0.50
2022-12-03T05:26:36.145Z,-0.50
2022-12-03T05:29:03.021Z,-0.60
2022-12-03T05:31:29.830Z,-0.50
2022-12-03T05:33:56.750Z,-0.50
2022-12-03T05:36:25.277Z,-0.60
2022-12-03T05:38:52.315Z,-0.60
2022-12-03T05:41:37.531Z,-0.60
2022-12-03T05:44:04.401Z,-0.60
2022-12-03T05:46:32.492Z,-0.60
2022-12-03T05:48:59.598Z,-0.60
2022-12-03T05:51:26.361Z,-0.60
2022-12-03T05:53:53.224Z,-0.60
2022-12-03T05:56:20.058Z,-0.70
2022-12-03T05:58:46.866Z,-0.60
2022-12-03T06:01:13.643Z,-0.80
2022-12-03T06:03:40.635Z,-0.80
2022-12-03T06:06:07.543Z,-0.80
2022-12-03T06:08:34.335Z,-0.80
2022-12-03T06:11:01.167Z,-0.80
2022-12-03T06:13:27.978Z,-0.80
2022-12-03T06:15:54.802Z,-0.80
2022-12-03T06:18:21.656Z,-0.80
2022-12-03T06:20:48.388Z,-0.80
2022-12-03T06:23:15.320Z,-0.90
2022-12-03T06:25:42.119Z,-0.90
2022-12-03T06:28:09.746Z,-0.90
2022-12-03T06:30:36.671Z,-0.90
2022-12-03T06:33:03.526Z,-0.90
2022-12-03T06:35:30.350Z,-0.90
2022-12-03T06:37:57.169Z,-0.90
2022-12-03T06:40:25.017Z,-0.90
2022-12-03T06:42:52.123Z,-0.90
2022-12-03T06:45:19.055Z,-0.90
2022-12-03T06:47:45.810Z,-0.90
2022-12-03T06:50:13.662Z,-0.90
2022-12-03T06:52:40.621Z,-0.90
2022-12-03T06:55:08.078Z,-0.90
2022-12-03T06:57:34.837Z,-0.90
2022-12-03T07:00:03.443Z,-0.90
2022-12-03T07:02:30.612Z,-0.80
2022-12-03T07:04:57.925Z,-0.80
2022-12-03T07:07:24.950Z,-0.80
2022-12-03T07:09:51.738Z,-0.80
2022-12-03T07:12:19.070Z,-0.90
2022-12-03T07:14:45.885Z,-0.90
2022-12-03T07:17:12.717Z,-0.90
2022-12-03T07:19:39.588Z,-0.90
2022-12-03T07:22:06.408Z,-0.90
2022-12-03T07:24:33.250Z,-0.90
2022-12-03T07:27:00.084Z,-0.90
2022-12-03T07:29:26.834Z,-0.90
2022-12-03T07:31:53.937Z,-0.90
2022-12-03T07:34:21.636Z,-0.90
2022-12-03T07:36:48.449Z,-0.90
2022-12-03T07:39:15.322Z,-0.90
2022-12-03T07:41:42.280Z,-0.90
2022-12-03T07:44:14.067Z,-0.80
2022-12-03T07:46:42.155Z,-0.90
2022-12-03T07:49:09.150Z,-0.90
2022-12-03T07:51:35.956Z,-0.80
2022-12-03T07:54:02.750Z,-0.90
2022-12-03T07:56:29.541Z,-0.90
2022-12-03T07:58:56.630Z,-0.90
2022-12-03T08:01:23.557Z,-0.80
2022-12-03T08:03:50.419Z,-0.80
2022-12-03T08:06:17.358Z,-0.80
2022-12-03T08:08:44.107Z,-0.80
2022-12-03T08:11:14.848Z,-0.80
2022-12-03T08:13:41.859Z,-0.70
2022-12-03T08:16:16.871Z,-0.70
2022-12-03T08:18:44.257Z,-0.70
2022-12-03T08:21:16.126Z,-0.70
2022-12-03T08:23:43.143Z,-0.70
2022-12-03T08:26:24.256Z,-0.60
2022-12-03T08:28:52.492Z,-0.70
2022-12-03T08:31:32.299Z,-0.60
2022-12-03T08:34:18.067Z,-0.60
2022-12-03T08:36:45.224Z,-0.70
2022-12-03T08:39:33.664Z,-0.60
2022-12-03T08:42:42.701Z,-0.60
2022-12-03T08:45:18.497Z,-0.60
2022-12-03T08:47:45.911Z,-0.50
2022-12-03T08:50:33.648Z,-0.50
2022-12-03T08:53:15.356Z,-0.50
2022-12-03T08:55:47.858Z,-0.50
2022-12-03T08:58:38.465Z,-0.40
2022-12-03T09:01:05.386Z,-0.40
2022-12-03T09:03:36.663Z,-0.40
2022-12-03T09:06:03.636Z,-0.30
2022-12-03T09:08:31.211Z,-0.30
2022-12-03T09:10:58.353Z,-0.30
2022-12-03T09:13:25.255Z,-0.20
2022-12-03T09:15:52.094Z,-0.30
2022-12-03T09:18:19.143Z,-0.20
2022-12-03T09:20:45.915Z,-0.20
2022-12-03T09:23:12.721Z,-0.20
2022-12-03T09:25:39.562Z,-0.20
2022-12-03T09:28:06.492Z,-0.20
2022-12-03T09:30:33.294Z,-0.20
2022-12-03T09:33:00.257Z,-0.20
2022-12-03T09:35:27.651Z,-0.20
2022-12-03T09:37:55.370Z,-0.10
2022-12-03T09:40:23.162Z,-0.10
2022-12-03T09:42:52.519Z,-0.20
2022-12-03T09:45:21.846Z,-0.20
2022-12-03T09:47:50.429Z,-0.10
2022-12-03T09:50:20.346Z,-0.10
2022-12-03T09:52:49.929Z,-0.10
2022-12-03T09:55:20.861Z,-0.20
2022-12-03T09:57:48.013Z,-0.10
2022-12-03T10:00:18.703Z,-0.10
2022-12-03T10:02:47.023Z,0.00
2022-12-03T10:05:14.476Z,0.00
2022-12-03T10:07:42.018Z,0.00
2022-12-03T10:10:20.025Z,0.00
2022-12-03T10:12:47.793Z,-0.10
2022-12-03T10:15:17.401Z,0.00
2022-12-03T10:17:45.887Z,-0.10
2022-12-03T10:20:15.672Z,-0.10
2022-12-03T10:22:42.665Z,-0.10
2022-12-03T10:25:15.450Z,-0.10
2022-12-03T10:27:42.734Z,-0.10
2022-12-03T10:30:19.743Z,-0.10
2022-12-03T10:32:49.595Z,-0.10
2022-12-03T10:35:26.275Z,0.00
2022-12-03T10:38:00.572Z,0.00
2022-12-03T10:40:35.815Z,0.00
2022-12-03T10:43:17.755Z,0.10
2022-12-03T10:45:49.499Z,0.00
2022-12-03T10:48:27.325Z,0.00
2022-12-03T10:51:00.755Z,0.00
2022-12-03T10:53:33.036Z,0.00
2022-12-03T10:56:04.085Z,0.00
2022-12-03T10:58:35.488Z,0.00
2022-12-03T11:01:06.937Z,0.10
2022-12-03T11:03:35.811Z,0.10
2022-12-03T11:06:03.897Z,0.10
2022-12-03T11:08:32.505Z,0.10
2022-12-03T11:11:13.019Z,0.10
2022-12-03T11:13:39.770Z,0.10
2022-12-03T11:16:08.275Z,0.10
2022-12-03T11:18:38.058Z,0.20
2022-12-03T11:21:07.993Z,0.10
2022-12-03T11:23:47.138Z,0.10
2022-12-03T11:26:36.935Z,0.20
2022-12-03T11:29:13.045Z,0.10
2022-12-03T11:31:42.547Z,0.20
2022-12-03T11:34:31.399Z,0.10
2022-12-03T11:37:12.274Z,0.20
2022-12-03T11:39:47.781Z,0.20
2022-12-03T11:42:26.515Z,0.20
2022-12-03T11:45:05.645Z,0.20
2022-12-03T11:47:44.365Z,0.20
2022-12-03T11:50:28.117Z,0.20
2022-12-03T11:53:22.508Z,0.10
2022-12-03T11:56:18.347Z,0.20
2022-12-03T11:58:46.665Z,0.20
2022-12-03T12:01:15.146Z,0.10
2022-12-03T12:03:43.761Z,0.10
2022-12-03T12:06:18.883Z,0.10
2022-12-03T12:08:51.707Z,0.10
2022-12-03T12:11:30.162Z,0.10
2022-12-03T12:14:12.653Z,0.10
2022-12-03T12:16:49.943Z,0.10
2022-12-03T12:19:33.826Z,0.10
2022-12-03T12:22:22.370Z,0.10
2022-12-03T12:24:57.395Z,0.20
2022-12-03T12:27:45.164Z,0.10
2022-12-03T12:30:17.815Z,0.20
2022-12-03T12:32:53.191Z,0.10
2022-12-03T12:35:24.400Z,0.10
2022-12-03T12:38:07.070Z,0.10
2022-12-03T12:40:42.753Z,0.10
2022-12-03T12:43:24.053Z,0.10
2022-12-03T12:45:54.983Z,0.10
2022-12-03T12:48:26.937Z,0.10
2022-12-03T12:51:00.149Z,0.10
2022-12-03T12:53:33.062Z,0.00
2022-12-03T12:56:31.799Z,0.10
2022-12-03T12:59:30.731Z,0.10
2022-12-03T13:01:57.935Z,0.10
2022-12-03T13:04:26.123Z,0.10
2022-12-03T13:06:53.983Z,0.10
2022-12-03T13:09:24.049Z,0.10
2022-12-03T13:11:54.144Z,0.10
2022-12-03T13:14:29.935Z,0.20
2022-12-03T13:16:58.934Z,0.20
2022-12-03T13:19:43.497Z,0.10
2022-12-03T13:22:20.603Z,0.20
2022-12-03T13:24:52.976Z,0.20
2022-12-03T13:27:19.730Z,0.10
2022-12-03T13:29:50.494Z,0.20
2022-12-03T13:32:20.441Z,0.20
2022-12-03T13:34:48.036Z,0.20
2022-12-03T13:37:20.145Z,0.20
2022-12-03T13:39:50.024Z,0.20
2022-12-03T13:42:39.999Z,0.10
2022-12-03T13:45:38.316Z,0.20
2022-12-03T13:48:25.981Z,0.20
2022-12-03T13:50:53.785Z,0.10
2022-12-03T13:53:24.812Z,0.20
2022-12-03T13:56:17.767Z,0.20
2022-12-03T13:58:44.529Z,0.10
2022-12-03T14:01:11.457Z,0.10
2022-12-03T14:03:38.561Z,0.10
2022-12-03T14:06:05.549Z,0.10
2022-12-03T14:08:32.410Z,0.10
2022-12-03T14:11:00.893Z,0.00
2022-12-03T14:13:28.024Z,0.00
2022-12-03T14:15:55.294Z,0.00
2022-12-03T14:18:22.239Z,0.10
2022-12-03T14:20:49.184Z,0.00
2022-12-03T14:23:16.257Z,0.00
2022-12-03T14:25:44.304Z,0.00
2022-12-03T14:28:11.295Z,0.00
2022-12-03T14:30:38.173Z,0.00
2022-12-03T14:33:05.552Z,0.00
2022-12-03T14:35:32.479Z,0.00
2022-12-03T14:37:59.328Z,0.00
2022-12-03T14:40:27.186Z,0.00
2022-12-03T14:42:54.149Z,0.00
2022-12-03T14:45:20.972Z,0.00
2022-12-03T14:47:47.819Z,0.00
2022-12-03T14:50:14.730Z,-0.10
2022-12-03T14:52:41.763Z,-0.10
2022-12-03T14:55:08.988Z,-0.10
2022-12-03T14:57:37.027Z,-0.10
2022-12-03T15:00:05.770Z,-0.10
2022-12-03T15:02:32.952Z,-0.10
2022-12-03T15:05:02.481Z,-0.10
2022-12-03T15:07:29.409Z,-0.10
2022-12-03T15:09:56.729Z,-0.10
2022-12-03T15:12:23.816Z,-0.10
2022-12-03T15:14:50.656Z,-0.10
2022-12-03T15:17:23.269Z,-0.10
2022-12-03T15:19:55.083Z,-0.10
2022-12-03T15:22:22.147Z,-0.10
2022-12-03T15:24:49.018Z,-0.10
2022-12-03T15:27:15.842Z,0.00
2022-12-03T15:29:42.744Z,0.00
2022-12-03T15:32:09.564Z,-0.10
2022-12-03T15:34:36.417Z,-0.10
2022-12-03T15:37:03.198Z,0.00
2022-12-03T15:39:30.020Z,0.00
2022-12-03T15:41:56.774Z,0.00
2022-12-03T15:44:23.534Z,0.00
2022-12-03T15:46:50.545Z,0.00
2022-12-03T15:49:17.272Z,-0.10
2022-12-03T15:51:44.132Z,-0.10
2022-12-03T15:54:12.167Z,-0.10
2022-12-03T15:56:39.024Z,-0.10
2022-12-03T15:59:05.917Z,0.00
2022-12-03T16:01:32.835Z,0.00
2022-12-03T16:03:59.705Z,0.00
2022-12-03T16:06:26.517Z,-0.10
2022-12-03T16:08:53.486Z,-0.10
2022-12-03T16:11:20.245Z,0.00
2022-12-03T16:13:47.076Z,0.00
2022-12-03T16:16:14.173Z,0.00
2022-12-03T16:18:42.593Z,-0.10
2022-12-03T16:21:09.347Z,0.00
2022-12-03T16:23:36.550Z,0.00
2022-12-03T16:26:03.431Z,0.00
2022-12-03T16:28:30.293Z,0.00
2022-12-03T16:30:57.110Z,0.00
2022-12-03T16:33:27.479Z,0.00
2022-12-03T16:35:54.947Z,0.00
2022-12-03T16:38:21.729Z,0.10
2022-12-03T16:40:48.684Z,0.00
2022-12-03T16:43:15.943Z,0.10
2022-12-03T16:45:42.669Z,0.00
2022-12-03T16:48:09.526Z,0.00
2022-12-03T16:50:37.596Z,0.00
2022-12-03T16:53:04.325Z,0.00
2022-12-03T16:55:31.169Z,0.00
2022-12-03T16:57:57.941Z,0.00
2022-12-03T17:00:25.891Z,0.00
2022-12-03T17:02:53.077Z,0.00
2022-12-03T17:05:19.966Z,0.00
2022-12-03T17:07:47.035Z,0.00
2022-12-03T17:10:13.946Z,0.10
2022-12-03T17:13:08.404Z,0.00
2022-12-03T17:15:27.646Z,0.10
2022-12-03T17:17:54.547Z,0.00
2022-12-03T17:20:21.405Z,0.10
2022-12-03T17:22:48.465Z,0.10
2022-12-03T17:25:15.729Z,0.10
2022-12-03T17:27:45.325Z,0.10
2022-12-03T17:30:12.797Z,0.10
2022-12-03T17:32:39.864Z,0.10
2022-12-03T17:35:07.705Z,0.10
2022-12-03T17:37:34.633Z,0.10
2022-12-03T17:40:01.598Z,0.10
2022-12-03T17:42:28.645Z,0.10
2022-12-03T17:44:55.479Z,0.20
2022-12-03T17:47:24.381Z,0.10
2022-12-03T17:49:51.408Z,0.10
2022-12-03T17:52:18.559Z,0.20
2022-12-03T17:55:09.304Z,0.10
2022-12-03T17:57:32.221Z,0.20
2022-12-03T17:59:59.210Z,0.10
2022-12-03T18:02:26.109Z,0.20
2022-12-03T18:04:53.164Z,0.20
2022-12-03T18:07:20.110Z,0.20
2022-12-03T18:09:46.961Z,0.20
2022-12-03T18:12:13.870Z,0.20
2022-12-03T18:14:40.686Z,0.10
2022-12-03T18:17:07.475Z,0.20
2022-12-03T18:19:34.724Z,0.20
2022-12-03T18:22:01.616Z,0.20
2022-12-03T18:24:28.435Z,0.20
2022-12-03T18:26:58.221Z,0.10
2022-12-03T18:29:25.094Z,0.20
2022-12-03T18:31:52.232Z,0.20
2022-12-03T18:34:19.083Z,0.20
2022-12-03T18:36:46.502Z,0.20
2022-12-03T18:39:27.444Z,0.20
2022-12-03T18:41:54.641Z,0.20
2022-12-03T18:44:21.774Z,0.20
2022-12-03T18:46:55.935Z,0.20
2022-12-03T18:49:23.268Z,0.20
2022-12-03T18:51:54.568Z,0.20
2022-12-03T18:54:25.747Z,0.30
2022-12-03T18:56:52.494Z,0.30
2022-12-03T18:59:19.652Z,0.20
2022-12-03T19:01:47.662Z,0.20
2022-12-03T19:04:17.813Z,0.20
2022-12-03T19:06:44.815Z,0.30
2022-12-03T19:09:11.646Z,0.20
2022-12-03T19:11:38.547Z,0.20
2022-12-03T19:14:05.622Z,0.20
2022-12-03T19:16:32.569Z,0.20
2022-12-03T19:18:59.592Z,0.20
2022-12-03T19:21:30.693Z,0.30
2022-12-03T19:24:24.338Z,0.30
2022-12-03T19:26:48.048Z,0.20
2022-12-03T19:29:14.926Z,0.30
2022-12-03T19:31:44.758Z,0.20
2022-12-03T19:34:11.568Z,0.20
2022-12-03T19:36:38.403Z,0.20
2022-12-03T19:39:05.264Z,0.20
2022-12-03T19:41:32.496Z,0.30
2022-12-03T19:43:59.745Z,0.30
2022-12-03T19:46:30.625Z,0.30
2022-12-03T19:48:57.859Z,0.20
2022-12-03T19:51:40.563Z,0.20
2022-12-03T19:54:10.385Z,0.20
2022-12-03T19:56:37.390Z,0.20
2022-12-03T19:59:04.985Z,0.20
2022-12-03T20:01:34.472Z,0.20
2022-12-03T20:04:03.764Z,0.20
2022-12-03T20:06:32.789Z,0.20
2022-12-03T20:09:04.036Z,0.30
2022-12-03T20:11:33.723Z,0.30
2022-12-03T20:14:04.386Z,0.30
2022-12-03T20:16:31.381Z,0.30
2022-12-03T20:19:00.742Z,0.30
2022-12-03T20:21:30.071Z,0.30
2022-12-03T20:23:56.867Z,0.30
2022-12-03T20:26:23.973Z,0.30
2022-12-03T20:28:54.250Z,0.30
2022-12-03T20:31:23.383Z,0.30
2022-12-03T20:33:52.695Z,0.30
2022-12-03T20:36:22.567Z,0.30
2022-12-03T20:38:53.904Z,0.40
2022-12-03T20:41:21.327Z,0.30
2022-12-03T20:43:48.835Z,0.40
2022-12-03T20:46:21.981Z,0.40
2022-12-03T20:48:54.054Z,0.30
2022-12-03T20:51:21.866Z,0.30
2022-12-03T20:53:49.117Z,0.30
2022-12-03T20:56:24.931Z,0.40
2022-12-03T20:58:53.123Z,0.40
2022-12-03T21:01:23.322Z,0.30
2022-12-03T21:03:51.773Z,0.40
2022-12-03T21:06:20.101Z,0.40
2022-12-03T21:08:47.237Z,0.30
2022-12-03T21:11:18.307Z,0.40
2022-12-03T21:13:46.797Z,0.40
2022-12-03T21:16:29.618Z,0.40
2022-12-03T21:19:09.821Z,0.40
2022-12-03T21:21:36.869Z,0.40
2022-12-03T21:24:04.070Z,0.30
2022-12-03T21:26:30.995Z,0.30
2022-12-03T21:29:02.448Z,0.30
2022-12-03T21:31:34.073Z,0.30
2022-12-03T21:34:01.493Z,0.30
2022-12-03T21:36:29.013Z,0.40
2022-12-03T21:38:56.974Z,0.40
2022-12-03T21:41:23.727Z,0.40
2022-12-03T21:43:50.618Z,0.40
2022-12-03T21:47:08.317Z,0.40
2022-12-03T21:49:04.422Z,0.40
2022-12-03T21:51:31.390Z,0.40
2022-12-03T21:53:58.574Z,0.40
2022-12-03T21:56:25.434Z,0.30
2022-12-03T21:58:52.315Z,0.30
2022-12-03T22:01:22.466Z,0.30
2022-12-03T22:03:49.846Z,0.30
2022-12-03T22:06:17.267Z,0.30
2022-12-03T22:08:44.302Z,0.30
2022-12-03T22:11:20.039Z,0.30
2022-12-03T22:13:47.074Z,0.40
2022-12-03T22:16:16.893Z,0.40
2022-12-03T22:18:43.977Z,0.40
2022-12-03T22:21:13.571Z,0.40
2022-12-03T22:23:40.773Z,0.40
2022-12-03T22:26:11.831Z,0.40
2022-12-03T22:28:42.093Z,0.40
2022-12-03T22:31:09.571Z,0.40
2022-12-03T22:33:39.870Z,0.40
2022-12-03T22:36:14.653Z,0.40
2022-12-03T22:38:45.507Z,0.40
2022-12-03T22:41:13.695Z,0.40
2022-12-03T22:43:40.592Z,0.40
2022-12-03T22:46:10.409Z,0.40
2022-12-03T22:48:37.397Z,0.40
2022-12-03T22:51:09.920Z,0.40
2022-12-03T22:53:36.680Z,0.40
2022-12-03T22:56:03.518Z,0.40
2022-12-03T22:58:31.593Z,0.50
2022-12-03T23:01:02.609Z,0.50
2022-12-03T23:03:30.471Z,0.50
2022-12-03T23:05:57.460Z,0.40
2022-12-03T23:08:24.307Z,0.40
2022-12-03T23:10:52.820Z,0.40
2022-12-03T23:13:20.083Z,0.50
2022-12-03T23:15:48.984Z,0.40
2022-12-03T23:18:16.427Z,0.40
2022-12-03T23:20:48.752Z,0.50
2022-12-03T23:23:16.224Z,0.50
2022-12-03T23:25:43.058Z,0.50
2022-12-03T23:28:10.534Z,0.50
2022-12-03T23:30:40.101Z,0.50
2022-12-03T23:33:07.194Z,0.50
2022-12-03T23:35:34.352Z,0.60
2022-12-03T23:38:01.208Z,0.50
2022-12-03T23:40:28.051Z,0.50
2022-12-03T23:42:55.021Z,0.50
2022-12-03T23:45:21.941Z,0.50
2022-12-03T23:47:51.279Z,0.50
2022-12-03T23:50:20.462Z,0.50
2022-12-03T23:52:47.329Z,0.50
2022-12-03T23:55:14.165Z,0.50
2022-12-03T23:57:41.010Z,0.50
